Time;durP1;ratioP1;P1;durP2;ratioP2;P2;SDS_P1;SDS_P2;PMS_P1;PMS_P2;Temp;Humidity;BMP_temperature;BMP_pressure;BME280_temperature;BME280_humidity;BME280_pressure;Samples;Min_cycle;Max_cycle;Signal;HPM_P1;HPM_P2
2022/12/12 00:01:49;;;;;;;;;;;;;;;;;;6070110;23;19917;-81
2022/12/12 00:04:15;;;;;;;;;;;;;;;;;;6070039;23;19905;-81
2022/12/12 00:06:40;;;;;;;;;;;;;;;;;;6069749;23;19938;-80
2022/12/12 00:09:06;;;;;;;;;;;;;;;;;;6070286;23;19905;-80
2022/12/12 00:11:31;;;;;;;;;;;;;;;;;;6069973;23;19916;-80
2022/12/12 00:13:57;;;;;;;;;;;;;;;;;;6069890;23;19920;-81
2022/12/12 00:16:23;;;;;;;;;;;;;;;;;;6068127;23;19913;-80
2022/12/12 00:18:48;;;;;;;;;;;;;;;;;;6069993;23;19932;-80
2022/12/12 00:21:18;;;;;;;;;;;;;;;;;;6069919;23;19905;-83
2022/12/12 00:23:44;;;;;;;;;;;;;;;;;;6069913;23;19917;-80
2022/12/12 00:26:22;;;;;;;;;;;;;;;;;;6069960;23;19910;-81
2022/12/12 00:28:48;;;;;;;;;;;;;;;;;;6069790;23;19905;-80
2022/12/12 00:31:13;;;;;;;;;;;;;;;;;;6069500;23;19943;-80
2022/12/12 00:33:39;;;;;;;;;;;;;;;;;;6069523;23;19917;-80
2022/12/12 00:36:04;;;;;;;;;;;;;;;;;;6069486;23;20325;-80
2022/12/12 00:38:29;;;;;;;;;;;;;;;;;;6070091;23;19909;-80
2022/12/12 00:40:56;;;;;;;;;;;;;;;;;;6069563;23;19941;-80
2022/12/12 00:43:22;;;;;;;;;;;;;;;;;;6069528;23;19914;-80
2022/12/12 00:45:47;;;;;;;;;;;;;;;;;;6069541;23;19956;-80
2022/12/12 00:48:12;;;;;;;;;;;;;;;;;;6069423;23;19909;-80
2022/12/12 00:50:38;;;;;;;;;;;;;;;;;;6069712;23;19926;-80
2022/12/12 00:53:03;;;;;;;;;;;;;;;;;;6069535;23;19986;-81
2022/12/12 00:55:28;;;;;;;;;;;;;;;;;;6069715;23;20237;-81
2022/12/12 00:57:54;;;;;;;;;;;;;;;;;;6069600;23;19909;-81
2022/12/12 01:00:20;;;;;;;;;;;;;;;;;;6069299;23;19916;-80
2022/12/12 01:02:45;;;;;;;;;;;;;;;;;;6044022;23;20336;-81
2022/12/12 01:05:11;;;;;;;;;;;;;;;;;;6069781;23;19909;-81
2022/12/12 01:07:36;;;;;;;;;;;;;;;;;;6069359;23;19909;-80
2022/12/12 01:10:02;;;;;;;;;;;;;;;;;;6069462;23;19945;-80
2022/12/12 01:12:28;;;;;;;;;;;;;;;;;;6069355;23;19910;-81
2022/12/12 01:14:53;;;;;;;;;;;;;;;;;;6069450;23;19909;-81
2022/12/12 01:17:18;;;;;;;;;;;;;;;;;;6069251;23;20230;-81
2022/12/12 01:19:44;;;;;;;;;;;;;;;;;;6043989;23;19929;-81
2022/12/12 01:22:09;;;;;;;;;;;;;;;;;;6069688;23;19912;-81
2022/12/12 01:24:34;;;;;;;;;;;;;;;;;;6069390;23;19964;-80
2022/12/12 01:27:00;;;;;;;;;;;;;;;;;;6069375;23;19914;-81
2022/12/12 01:29:25;;;;;;;;;;;;;;;;;;6069512;23;19906;-81
2022/12/12 01:31:50;;;;;;;;;;;;;;;;;;6069228;23;19914;-81
2022/12/12 01:34:16;;;;;;;;;;;;;;;;;;6069155;23;19910;-81
2022/12/12 01:36:41;;;;;;;;;;;;;;;;;;6069131;23;19916;-81
2022/12/12 01:39:06;;;;;;;;;;;;;;;;;;6069592;23;19957;-81
2022/12/12 01:41:32;;;;;;;;;;;;;;;;;;6069281;23;19915;-81
2022/12/12 01:44:00;;;;;;;;;;;;;;;;;;6070171;23;19917;-81
2022/12/12 01:46:34;;;;;;;;;;;;;;;;;;6069200;23;19918;-82
2022/12/12 01:49:02;;;;;;;;;;;;;;;;;;6069152;23;19910;-82
2022/12/12 01:51:28;;;;;;;;;;;;;;;;;;6069466;23;20261;-81
2022/12/12 01:53:57;;;;;;;;;;;;;;;;;;6069297;23;19909;-81
2022/12/12 01:56:23;;;;;;;;;;;;;;;;;;6069057;23;19917;-81
2022/12/12 01:58:50;;;;;;;;;;;;;;;;;;6069139;23;19913;-82
2022/12/12 02:01:15;;;;;;;;;;;;;;;;;;6069189;23;20361;-82
2022/12/12 02:03:41;;;;;;;;;;;;;;;;;;6069303;23;19909;-81
2022/12/12 02:06:09;;;;;;;;;;;;;;;;;;6069119;23;19916;-81
2022/12/12 02:08:36;;;;;;;;;;;;;;;;;;6069240;23;19909;-81
2022/12/12 02:11:01;;;;;;;;;;;;;;;;;;6043648;23;20240;-81
2022/12/12 02:13:28;;;;;;;;;;;;;;;;;;6069189;23;19988;-82
2022/12/12 02:16:12;;;;;;;;;;;;;;;;;;6069056;23;19910;-81
2022/12/12 02:18:37;;;;;;;;;;;;;;;;;;6043644;23;19909;-81
2022/12/12 02:21:17;;;;;;;;;;;;;;;;;;6043525;23;19956;-82
2022/12/12 02:23:42;;;;;;;;;;;;;;;;;;6069058;23;19933;-82
2022/12/12 02:26:26;;;;;;;;;;;;;;;;;;6068936;23;19916;-81
2022/12/12 02:29:03;;;;;;;;;;;;;;;;;;6069505;23;19924;-82
2022/12/12 02:32:00;;;;;;;;;;;;;;;;;;6068653;23;19924;-81
2022/12/12 02:34:42;;;;;;;;;;;;;;;;;;5990819;23;19909;-81
2022/12/12 02:37:11;;;;;;;;;;;;;;;;;;6068915;23;19910;-81
2022/12/12 02:39:55;;;;;;;;;;;;;;;;;;6068997;23;19965;-82
2022/12/12 02:42:39;;;;;;;;;;;;;;;;;;6043606;23;19913;-81
2022/12/12 02:45:08;;;;;;;;;;;;;;;;;;6068883;23;19992;-82
2022/12/12 02:47:44;;;;;;;;;;;;;;;;;;6069972;23;19917;-82
2022/12/12 02:50:15;;;;;;;;;;;;;;;;;;6070877;23;19972;-81
2022/12/12 02:52:44;;;;;;;;;;;;;;;;;;6070701;23;19909;-82
2022/12/12 02:55:09;;;;;;;;;;;;;;;;;;6070634;23;19910;-81
2022/12/12 02:57:35;;;;;;;;;;;;;;;;;;6070370;23;20360;-81
2022/12/12 03:00:02;;;;;;;;;;;;;;;;;;6070805;23;19913;-81
2022/12/12 03:02:46;;;;;;;;;;;;;;;;;;6070777;23;19910;-82
2022/12/12 03:08:17;;;;;;;;;;;;;;;;;;6070746;23;20012;-81
2022/12/12 03:11:00;;;;;;;;;;;;;;;;;;6070695;23;19916;-82
2022/12/12 03:13:26;;;;;;;;;;;;;;;;;;6044999;23;20244;-81
2022/12/12 03:16:00;;;;;;;;;;;;;;;;;;6070341;23;19909;-81
2022/12/12 03:18:29;;;;;;;;;;;;;;;;;;6070418;23;19909;-81
2022/12/12 03:21:02;;;;;;;;;;;;;;;;;;6070742;23;19909;-81
2022/12/12 03:23:31;;;;;;;;;;;;;;;;;;6070350;23;20277;-81
2022/12/12 03:26:06;;;;;;;;;;;;;;;;;;6070227;23;19917;-82
2022/12/12 03:28:35;;;;;;;;;;;;;;;;;;6070335;23;19910;-81
2022/12/12 03:31:03;;;;;;;;;;;;;;;;;;6070001;23;19917;-81
2022/12/12 03:33:38;;;;;;;;;;;;;;;;;;6070123;23;19984;-81
2022/12/12 03:36:09;;;;;;;;;;;;;;;;;;6070172;23;19992;-81
2022/12/12 03:38:43;;;;;;;;;;;;;;;;;;6070378;23;19909;-81
2022/12/12 03:41:16;;;;;;;;;;;;;;;;;;6070034;23;20373;-81
2022/12/12 03:43:57;;;;;;;;;;;;;;;;;;6070363;23;20310;-81
2022/12/12 03:46:28;;;;;;;;;;;;;;;;;;6044624;23;19909;-82
2022/12/12 03:49:06;;;;;;;;;;;;;;;;;;6070112;23;19980;-81
2022/12/12 03:51:50;;;;;;;;;;;;;;;;;;6069939;23;20348;-81
2022/12/12 03:54:24;;;;;;;;;;;;;;;;;;6070339;23;19920;-81
2022/12/12 03:57:05;;;;;;;;;;;;;;;;;;6070092;23;20306;-81
2022/12/12 03:59:52;;;;;;;;;;;;;;;;;;6045253;23;19970;-81
2022/12/12 04:02:27;;;;;;;;;;;;;;;;;;6069710;23;19910;-81
2022/12/12 04:04:59;;;;;;;;;;;;;;;;;;6070297;23;19909;-81
2022/12/12 04:07:29;;;;;;;;;;;;;;;;;;6070030;23;19920;-81
2022/12/12 04:12:58;;;;;;;;;;;;;;;;;;6069783;23;19917;-81
2022/12/12 04:15:26;;;;;;;;;;;;;;;;;;6044507;23;19909;-81
2022/12/12 04:18:04;;;;;;;;;;;;;;;;;;6044411;23;19984;-81
2022/12/12 04:23:22;;;;;;;;;;;;;;;;;;6070187;23;20329;-80
2022/12/12 04:28:33;;;;;;;;;;;;;;;;;;6069650;23;19917;-81
2022/12/12 04:31:00;;;;;;;;;;;;;;;;;;6069433;23;19914;-85
2022/12/12 04:33:27;;;;;;;;;;;;;;;;;;6069743;23;19909;-81
2022/12/12 04:35:53;;;;;;;;;;;;;;;;;;6069789;23;19917;-81
2022/12/12 04:38:21;;;;;;;;;;;;;;;;;;6069588;23;19909;-82
2022/12/12 04:40:49;;;;;;;;;;;;;;;;;;6069804;23;19910;-81
2022/12/12 04:43:19;;;;;;;;;;;;;;;;;;6069729;23;19909;-83
2022/12/12 04:46:05;;;;;;;;;;;;;;;;;;6069435;23;20311;-81
2022/12/12 04:48:38;;;;;;;;;;;;;;;;;;6069854;23;19914;-81
2022/12/12 04:51:04;;;;;;;;;;;;;;;;;;6069562;23;19916;-80
2022/12/12 04:53:32;;;;;;;;;;;;;;;;;;6069716;23;19909;-85
2022/12/12 04:56:00;;;;;;;;;;;;;;;;;;6069325;23;19940;-82
2022/12/12 04:58:26;;;;;;;;;;;;;;;;;;6069468;23;19910;-81
2022/12/12 05:01:01;;;;;;;;;;;;;;;;;;6069608;23;19957;-80
2022/12/12 05:03:32;;;;;;;;;;;;;;;;;;6069604;23;19909;-81
2022/12/12 05:05:59;;;;;;;;;;;;;;;;;;6069567;23;20040;-80
2022/12/12 05:08:32;;;;;;;;;;;;;;;;;;6069432;23;19916;-81
2022/12/12 05:11:02;;;;;;;;;;;;;;;;;;6069120;23;19910;-81
2022/12/12 05:13:28;;;;;;;;;;;;;;;;;;6069461;23;19989;-81
2022/12/12 05:15:54;;;;;;;;;;;;;;;;;;6069303;23;19909;-80
2022/12/12 05:18:20;;;;;;;;;;;;;;;;;;6044053;23;19909;-80
2022/12/12 05:20:46;;;;;;;;;;;;;;;;;;6069486;23;20376;-80
2022/12/12 05:23:11;;;;;;;;;;;;;;;;;;6069340;23;19910;-80
2022/12/12 05:25:36;;;;;;;;;;;;;;;;;;6069253;23;19909;-81
2022/12/12 05:28:02;;;;;;;;;;;;;;;;;;6069686;23;19913;-81
2022/12/12 05:30:27;;;;;;;;;;;;;;;;;;6068983;23;19973;-85
2022/12/12 05:32:53;;;;;;;;;;;;;;;;;;6069411;23;19964;-84
2022/12/12 05:35:18;;;;;;;;;;;;;;;;;;6069422;23;20364;-81
2022/12/12 05:37:43;;;;;;;;;;;;;;;;;;6069294;23;19910;-81
2022/12/12 05:40:10;;;;;;;;;;;;;;;;;;6069142;23;19909;-85
2022/12/12 05:42:35;;;;;;;;;;;;;;;;;;6043922;23;19910;-82
2022/12/12 05:45:01;;;;;;;;;;;;;;;;;;6069653;23;19920;-81
2022/12/12 05:47:26;;;;;;;;;;;;;;;;;;6069161;23;19951;-77
2022/12/12 05:49:51;;;;;;;;;;;;;;;;;;6069132;23;19988;-77
2022/12/12 05:52:17;;;;;;;;;;;;;;;;;;6069130;23;19909;-77
2022/12/12 05:54:42;;;;;;;;;;;;;;;;;;6069021;23;19910;-81
2022/12/12 05:57:08;;;;;;;;;;;;;;;;;;6069276;23;19988;-82
2022/12/12 05:59:33;;;;;;;;;;;;;;;;;;6069306;23;19910;-80
2022/12/12 06:01:59;;;;;;;;;;;;;;;;;;6069345;23;19910;-82
2022/12/12 06:04:24;;;;;;;;;;;;;;;;;;6069070;23;19913;-80
2022/12/12 06:06:49;;;;;;;;;;;;;;;;;;6068953;23;20318;-87
2022/12/12 06:09:14;;;;;;;;;;;;;;;;;;6069054;23;19933;-83
2022/12/12 06:11:40;;;;;;;;;;;;;;;;;;6069276;23;19913;-82
2022/12/12 06:14:05;;;;;;;;;;;;;;;;;;6069234;23;19909;-79
2022/12/12 06:16:30;;;;;;;;;;;;;;;;;;6069053;23;19917;-80
2022/12/12 06:18:56;;;;;;;;;;;;;;;;;;6069403;23;19985;-80
2022/12/12 06:21:21;;;;;;;;;;;;;;;;;;6070159;23;19909;-81
2022/12/12 06:23:47;;;;;;;;;;;;;;;;;;6070961;23;19909;-79
2022/12/12 06:26:13;;;;;;;;;;;;;;;;;;6070995;23;20284;-79
2022/12/12 06:28:38;;;;;;;;;;;;;;;;;;6071285;23;19909;-78
2022/12/12 06:31:05;;;;;;;;;;;;;;;;;;6070637;23;20233;-81
2022/12/12 06:33:34;;;;;;;;;;;;;;;;;;6070678;23;19913;-79
2022/12/12 06:36:25;;;;;;;;;;;;;;;;;;6070650;23;19917;-79
2022/12/12 06:38:55;;;;;;;;;;;;;;;;;;6063794;23;19946;-81
2022/12/12 06:41:20;;;;;;;;;;;;;;;;;;6070744;23;19909;-81
2022/12/12 06:43:46;;;;;;;;;;;;;;;;;;6070313;23;20540;-82
2022/12/12 06:46:13;;;;;;;;;;;;;;;;;;6045226;23;19937;-81
2022/12/12 06:48:38;;;;;;;;;;;;;;;;;;6070710;23;19988;-80
2022/12/12 06:51:08;;;;;;;;;;;;;;;;;;6070479;23;19996;-80
2022/12/12 06:53:33;;;;;;;;;;;;;;;;;;6070590;23;19925;-83
2022/12/12 06:55:58;;;;;;;;;;;;;;;;;;6070562;23;19905;-81
2022/12/12 06:58:24;;;;;;;;;;;;;;;;;;6070757;23;19913;-81
2022/12/12 07:00:53;;;;;;;;;;;;;;;;;;6070662;23;19905;-81
2022/12/12 07:03:18;;;;;;;;;;;;;;;;;;6070429;23;19933;-82
2022/12/12 07:05:46;;;;;;;;;;;;;;;;;;6070910;23;19909;-81
2022/12/12 07:08:12;;;;;;;;;;;;;;;;;;6070773;23;19916;-80
2022/12/12 07:10:37;;;;;;;;;;;;;;;;;;6070453;23;19910;-80
2022/12/12 07:13:03;;;;;;;;;;;;;;;;;;6070511;23;19993;-80
2022/12/12 07:15:29;;;;;;;;;;;;;;;;;;6070589;23;19941;-81
2022/12/12 07:17:54;;;;;;;;;;;;;;;;;;6070343;23;19916;-80
2022/12/12 07:20:19;;;;;;;;;;;;;;;;;;6070242;23;19910;-80
2022/12/12 07:22:45;;;;;;;;;;;;;;;;;;6070640;23;19910;-79
2022/12/12 08:43:21;;;;;;;;;;;;;;;;;;6065269;23;19917;-77
2022/12/12 08:45:46;;;;;;;;;;;;;;;;;;6069561;23;19913;-79
2022/12/12 08:48:12;;;;;;;;;;;;;;;;;;6069783;23;19910;-76
2022/12/12 10:13:26;;;;;;;;;;;;;;;;;;6088850;23;19917;-76
2022/12/12 10:15:56;;;;;;;;;;;;;;;;;;6071102;23;19984;-77
2022/12/12 10:18:24;;;;;;;;;;;;;;;;;;6071086;23;19925;-76
2022/12/12 10:20:50;;;;;;;;;;;;;;;;;;6070719;23;19910;-77
2022/12/12 10:23:34;;;;;;;;;;;;;;;;;;6071252;23;19910;-79
2022/12/12 10:26:05;;;;;;;;;;;;;;;;;;6070997;23;19910;-76
2022/12/12 10:28:31;;;;;;;;;;;;;;;;;;6071219;23;20278;-79
2022/12/12 10:30:57;;;;;;;;;;;;;;;;;;6070903;23;19929;-91
2022/12/12 10:33:25;;;;;;;;;;;;;;;;;;6070873;23;19916;-81
2022/12/12 10:36:01;;;;;;;;;;;;;;;;;;6071264;23;20232;-78
2022/12/12 10:38:26;;;;;;;;;;;;;;;;;;6047197;23;20241;-81
2022/12/12 10:40:55;;;;;;;;;;;;;;;;;;6071062;23;19916;-82
2022/12/12 10:43:33;;;;;;;;;;;;;;;;;;6070807;23;19909;-81
2022/12/12 10:46:14;;;;;;;;;;;;;;;;;;6045200;23;20347;-81
2022/12/12 10:48:40;;;;;;;;;;;;;;;;;;6070649;23;19941;-81
2022/12/12 10:51:07;;;;;;;;;;;;;;;;;;6070605;23;19910;-90
2022/12/12 10:53:33;;;;;;;;;;;;;;;;;;6045611;23;19917;-87
2022/12/12 10:56:03;;;;;;;;;;;;;;;;;;6071273;23;19905;-89
2022/12/12 10:58:42;;;;;;;;;;;;;;;;;;6071288;23;19909;-87
2022/12/12 11:01:12;;;;;;;;;;;;;;;;;;6071186;23;19961;-87
2022/12/12 11:03:39;;;;;;;;;;;;;;;;;;6071623;23;19910;-95
2022/12/12 11:06:09;;;;;;;;;;;;;;;;;;6071669;23;19905;-88
2022/12/12 11:08:35;;;;;;;;;;;;;;;;;;6045632;23;19984;-89
2022/12/12 11:11:19;;;;;;;;;;;;;;;;;;6070434;23;19906;-91
2022/12/12 11:13:49;;;;;;;;;;;;;;;;;;6047492;23;19914;-89
2022/12/12 11:16:16;;;;;;;;;;;;;;;;;;6070561;23;19941;-87
2022/12/12 11:18:55;;;;;;;;;;;;;;;;;;6070870;23;19916;-92
2022/12/12 11:21:22;;;;;;;;;;;;;;;;;;6070065;23;20218;-87
2022/12/12 11:23:51;;;;;;;;;;;;;;;;;;6069072;23;19910;-87
2022/12/12 11:26:17;;;;;;;;;;;;;;;;;;6070639;23;20314;-87
2022/12/12 11:28:45;;;;;;;;;;;;;;;;;;6070824;23;19966;-87
2022/12/12 11:31:13;;;;;;;;;;;;;;;;;;6068912;23;19932;-88
2022/12/12 11:33:55;;;;;;;;;;;;;;;;;;6069041;23;19916;-87
2022/12/12 11:36:22;;;;;;;;;;;;;;;;;;6068832;23;19910;-86
2022/12/12 11:38:53;;;;;;;;;;;;;;;;;;6068785;23;19916;-86
2022/12/12 11:41:19;;;;;;;;;;;;;;;;;;6070182;23;19910;-88
2022/12/12 11:43:44;;;;;;;;;;;;;;;;;;6068631;23;19916;-87
2022/12/12 11:46:12;;;;;;;;;;;;;;;;;;6069347;23;19909;-88
2022/12/12 11:48:50;;;;;;;;;;;;;;;;;;6068620;23;20356;-89
2022/12/12 11:51:32;;;;;;;;;;;;;;;;;;6070194;23;19949;-87
2022/12/12 11:53:58;;;;;;;;;;;;;;;;;;6070418;23;19913;-87
2022/12/12 11:56:23;;;;;;;;;;;;;;;;;;6070441;23;19961;-88
2022/12/12 11:59:18;;;;;;;;;;;;;;;;;;6068960;23;20342;-87
2022/12/12 12:01:43;;;;;;;;;;;;;;;;;;5968735;23;20004;-86
2022/12/12 12:04:11;;;;;;;;;;;;;;;;;;6068614;23;19909;-86
2022/12/12 12:06:36;;;;;;;;;;;;;;;;;;6068594;23;19909;-87
2022/12/12 12:09:17;;;;;;;;;;;;;;;;;;6070199;23;19965;-90
2022/12/12 12:11:53;;;;;;;;;;;;;;;;;;6071068;23;19949;-86
2022/12/12 12:14:37;;;;;;;;;;;;;;;;;;6069934;23;19913;-86
2022/12/12 12:17:02;;;;;;;;;;;;;;;;;;6069877;23;19909;-86
2022/12/12 12:19:43;;;;;;;;;;;;;;;;;;6069404;23;19913;-86
2022/12/12 12:22:17;;;;;;;;;;;;;;;;;;6071688;23;19959;-86
2022/12/12 12:25:05;;;;;;;;;;;;;;;;;;6070282;23;19910;-86
2022/12/12 12:27:30;;;;;;;;;;;;;;;;;;6050728;23;20226;-86
2022/12/12 12:29:56;;;;;;;;;;;;;;;;;;6069500;23;19917;-88
2022/12/12 12:32:24;;;;;;;;;;;;;;;;;;6069519;23;19957;-83
2022/12/12 12:35:08;;;;;;;;;;;;;;;;;;6069622;23;19909;-84
2022/12/12 12:37:42;;;;;;;;;;;;;;;;;;6069578;23;20306;-83
2022/12/12 12:40:24;;;;;;;;;;;;;;;;;;6070523;23;20296;-83
2022/12/12 12:42:52;;;;;;;;;;;;;;;;;;6070102;23;19981;-83
2022/12/12 12:45:27;;;;;;;;;;;;;;;;;;6069700;23;19913;-81
2022/12/12 17:09:55;;;;;;;;;;;;;;;;;;6043631;23;19917;-86
2022/12/12 17:12:21;;;;;;;;;;;;;;;;;;6070113;23;19921;-86
2022/12/12 17:14:46;;;;;;;;;;;;;;;;;;6067690;23;20045;-83
2022/12/12 17:17:11;;;;;;;;;;;;;;;;;;6069589;23;20037;-92
2022/12/12 17:19:38;;;;;;;;;;;;;;;;;;6068487;23;20180;-86
2022/12/12 17:22:04;;;;;;;;;;;;;;;;;;6070002;23;20241;-88
2022/12/12 17:24:31;;;;;;;;;;;;;;;;;;6068561;23;19937;-96
2022/12/12 17:26:57;;;;;;;;;;;;;;;;;;6068774;23;20280;-87
2022/12/12 17:29:22;;;;;;;;;;;;;;;;;;6069887;23;19941;-89
2022/12/12 17:31:48;;;;;;;;;;;;;;;;;;6069241;23;19961;-84
2022/12/12 17:34:13;;;;;;;;;;;;;;;;;;6069482;23;19968;-88
2022/12/12 17:36:38;;;;;;;;;;;;;;;;;;6069562;23;20074;-88
2022/12/12 17:39:04;;;;;;;;;;;;;;;;;;6067894;23;19917;-88
2022/12/12 17:41:29;;;;;;;;;;;;;;;;;;6069316;23;19988;-88
2022/12/12 17:43:55;;;;;;;;;;;;;;;;;;6069855;23;19914;-90
2022/12/12 17:46:20;;;;;;;;;;;;;;;;;;6070305;23;20356;-86
2022/12/12 17:48:46;;;;;;;;;;;;;;;;;;6069689;23;19985;-88
2022/12/12 17:51:12;;;;;;;;;;;;;;;;;;6069294;23;20392;-88
2022/12/12 17:53:38;;;;;;;;;;;;;;;;;;6067517;23;20244;-88
2022/12/12 17:56:08;;;;;;;;;;;;;;;;;;6067584;23;19941;-88
2022/12/12 17:58:34;;;;;;;;;;;;;;;;;;6067893;23;19936;-88
2022/12/12 18:00:59;;;;;;;;;;;;;;;;;;6069317;23;19956;-87
2022/12/12 18:03:25;;;;;;;;;;;;;;;;;;6069156;23;19921;-87
2022/12/12 18:05:50;;;;;;;;;;;;;;;;;;6067731;23;19920;-87
2022/12/12 18:08:17;;;;;;;;;;;;;;;;;;6067518;23;20326;-88
2022/12/12 18:10:42;;;;;;;;;;;;;;;;;;6069068;23;19941;-87
2022/12/12 18:13:07;;;;;;;;;;;;;;;;;;6043656;23;20245;-88
2022/12/12 18:15:33;;;;;;;;;;;;;;;;;;6043720;23;19917;-86
2022/12/12 18:17:58;;;;;;;;;;;;;;;;;;6048597;23;19945;-85
2022/12/12 18:20:23;;;;;;;;;;;;;;;;;;6047026;23;19914;-88
2022/12/12 18:22:49;;;;;;;;;;;;;;;;;;6046195;23;20261;-87
2022/12/12 18:25:14;;;;;;;;;;;;;;;;;;6071096;23;19921;-88
2022/12/12 18:27:39;;;;;;;;;;;;;;;;;;6070984;23;19918;-87
2022/12/12 18:30:05;;;;;;;;;;;;;;;;;;6046452;23;20376;-87
2022/12/12 18:32:30;;;;;;;;;;;;;;;;;;6070824;23;19914;-88
2022/12/12 18:34:56;;;;;;;;;;;;;;;;;;6070860;23;19961;-88
2022/12/12 18:37:22;;;;;;;;;;;;;;;;;;6045696;23;19909;-87
2022/12/12 18:39:47;;;;;;;;;;;;;;;;;;6070870;23;19920;-87
2022/12/12 18:42:12;;;;;;;;;;;;;;;;;;6070967;23;20219;-88
2022/12/12 18:44:37;;;;;;;;;;;;;;;;;;6045463;23;20247;-88
2022/12/12 18:47:03;;;;;;;;;;;;;;;;;;6045102;23;19921;-86
2022/12/12 18:49:28;;;;;;;;;;;;;;;;;;6046264;23;19910;-90
2022/12/12 18:51:53;;;;;;;;;;;;;;;;;;6045892;23;19917;-91
2022/12/12 18:54:19;;;;;;;;;;;;;;;;;;6070975;23;19924;-89
2022/12/12 18:56:45;;;;;;;;;;;;;;;;;;6070960;23;19910;-85
2022/12/12 18:59:10;;;;;;;;;;;;;;;;;;6071252;23;20031;-84
2022/12/12 19:01:37;;;;;;;;;;;;;;;;;;6070721;23;20384;-86
2022/12/12 19:04:03;;;;;;;;;;;;;;;;;;6045198;23;19946;-84
2022/12/12 19:06:32;;;;;;;;;;;;;;;;;;6070386;23;19969;-83
2022/12/12 19:08:58;;;;;;;;;;;;;;;;;;6070586;23;19918;-88
2022/12/12 19:11:23;;;;;;;;;;;;;;;;;;6045145;23;19914;-83
2022/12/12 19:13:48;;;;;;;;;;;;;;;;;;6071211;23;20070;-83
2022/12/12 19:16:15;;;;;;;;;;;;;;;;;;6045062;23;19910;-83
2022/12/12 19:18:41;;;;;;;;;;;;;;;;;;6070519;23;19960;-82
2022/12/12 19:21:07;;;;;;;;;;;;;;;;;;6070502;23;19945;-82
2022/12/12 19:23:33;;;;;;;;;;;;;;;;;;6070391;23;19985;-81
2022/12/12 19:26:04;;;;;;;;;;;;;;;;;;6070432;23;20321;-83
2022/12/12 19:28:29;;;;;;;;;;;;;;;;;;6069904;23;19914;-82
2022/12/12 19:30:55;;;;;;;;;;;;;;;;;;6070460;23;19968;-82
2022/12/12 19:33:20;;;;;;;;;;;;;;;;;;6070407;23;19920;-82
2022/12/12 19:35:45;;;;;;;;;;;;;;;;;;6071182;23;19914;-81
2022/12/12 19:38:15;;;;;;;;;;;;;;;;;;6046332;23;19913;-84
2022/12/12 19:40:41;;;;;;;;;;;;;;;;;;6047171;23;19913;-90
2022/12/12 19:43:09;;;;;;;;;;;;;;;;;;6047001;23;19921;-84
2022/12/12 19:45:34;;;;;;;;;;;;;;;;;;6071472;23;19913;-83
2022/12/12 19:48:00;;;;;;;;;;;;;;;;;;6046194;23;19921;-83
2022/12/12 19:50:25;;;;;;;;;;;;;;;;;;6071162;23;19918;-84
2022/12/12 19:52:50;;;;;;;;;;;;;;;;;;6071033;23;20293;-83
2022/12/12 19:55:16;;;;;;;;;;;;;;;;;;6070785;23;19914;-84
2022/12/12 19:57:44;;;;;;;;;;;;;;;;;;6070766;23;20380;-82
2022/12/12 20:00:10;;;;;;;;;;;;;;;;;;6070900;23;19913;-83
2022/12/12 20:02:35;;;;;;;;;;;;;;;;;;6070983;23;19914;-82
2022/12/12 20:05:01;;;;;;;;;;;;;;;;;;6071137;23;19916;-81
2022/12/12 20:07:26;;;;;;;;;;;;;;;;;;6045746;23;19965;-83
2022/12/12 20:09:52;;;;;;;;;;;;;;;;;;6070630;23;19921;-82
2022/12/12 20:12:17;;;;;;;;;;;;;;;;;;6070805;23;19968;-82
2022/12/12 20:14:43;;;;;;;;;;;;;;;;;;6070872;23;19913;-82
2022/12/12 20:17:09;;;;;;;;;;;;;;;;;;6045049;23;20318;-80
2022/12/12 20:19:47;;;;;;;;;;;;;;;;;;6070935;23;20302;-80
2022/12/12 20:22:15;;;;;;;;;;;;;;;;;;6071174;23;20290;-82
2022/12/12 20:24:43;;;;;;;;;;;;;;;;;;6071056;23;19970;-83
2022/12/12 20:27:10;;;;;;;;;;;;;;;;;;6070547;23;19909;-83
2022/12/12 20:29:35;;;;;;;;;;;;;;;;;;6044132;23;19959;-82
2022/12/12 20:32:01;;;;;;;;;;;;;;;;;;6070326;23;19913;-84
2022/12/12 20:34:32;;;;;;;;;;;;;;;;;;6045707;23;19973;-83
2022/12/12 20:36:58;;;;;;;;;;;;;;;;;;6070625;23;19914;-82
2022/12/12 20:39:24;;;;;;;;;;;;;;;;;;6070456;23;19977;-82
2022/12/12 20:41:52;;;;;;;;;;;;;;;;;;6070518;23;19997;-81
2022/12/12 20:44:21;;;;;;;;;;;;;;;;;;6070959;23;20352;-83
2022/12/12 20:46:49;;;;;;;;;;;;;;;;;;6070681;23;20357;-79
2022/12/12 20:49:27;;;;;;;;;;;;;;;;;;6071632;23;19920;-81
2022/12/12 20:51:53;;;;;;;;;;;;;;;;;;6071140;23;19914;-82
2022/12/12 20:54:21;;;;;;;;;;;;;;;;;;6071644;23;19961;-77
2022/12/12 20:56:49;;;;;;;;;;;;;;;;;;6075760;23;19910;-82
2022/12/12 20:59:14;;;;;;;;;;;;;;;;;;6074764;23;19992;-82
2022/12/12 21:01:40;;;;;;;;;;;;;;;;;;6070829;23;19910;-81
2022/12/12 21:04:08;;;;;;;;;;;;;;;;;;6069783;23;20313;-79
2022/12/12 21:06:34;;;;;;;;;;;;;;;;;;6072171;23;19969;-78
2022/12/12 21:09:01;;;;;;;;;;;;;;;;;;6071240;23;19929;-78
2022/12/12 21:11:28;;;;;;;;;;;;;;;;;;6070117;23;19914;-79
2022/12/12 21:13:53;;;;;;;;;;;;;;;;;;6069750;23;19996;-77
2022/12/12 21:16:23;;;;;;;;;;;;;;;;;;6069720;23;20552;-80
2022/12/12 21:18:50;;;;;;;;;;;;;;;;;;6070111;23;19948;-80
2022/12/12 21:21:16;;;;;;;;;;;;;;;;;;6069738;23;19913;-79
2022/12/12 21:23:41;;;;;;;;;;;;;;;;;;6069747;23;19918;-79
2022/12/12 21:26:10;;;;;;;;;;;;;;;;;;6069426;23;20257;-79
2022/12/12 21:28:36;;;;;;;;;;;;;;;;;;6069986;23;19968;-79
2022/12/12 21:31:04;;;;;;;;;;;;;;;;;;6069815;23;19992;-80
2022/12/12 21:33:29;;;;;;;;;;;;;;;;;;6069669;23;20314;-79
2022/12/12 21:35:54;;;;;;;;;;;;;;;;;;6069672;23;19914;-79
2022/12/12 21:38:20;;;;;;;;;;;;;;;;;;6069338;23;19969;-84
2022/12/12 21:40:45;;;;;;;;;;;;;;;;;;6069501;23;19918;-79
2022/12/12 21:43:10;;;;;;;;;;;;;;;;;;6043735;23;19989;-81
2022/12/12 21:45:36;;;;;;;;;;;;;;;;;;6069424;23;19913;-85
2022/12/12 21:48:02;;;;;;;;;;;;;;;;;;6043903;23;19921;-83
2022/12/12 21:50:27;;;;;;;;;;;;;;;;;;6069344;23;19914;-85
2022/12/12 21:55:40;;;;;;;;;;;;;;;;;;6071906;23;19921;-79
2022/12/12 21:58:06;;;;;;;;;;;;;;;;;;6045914;23;19914;-80
2022/12/12 22:00:31;;;;;;;;;;;;;;;;;;6071523;23;19920;-79
2022/12/12 22:02:57;;;;;;;;;;;;;;;;;;6071188;23;19909;-80
2022/12/12 22:05:22;;;;;;;;;;;;;;;;;;6071270;23;19920;-80
2022/12/12 22:07:47;;;;;;;;;;;;;;;;;;6071323;23;20287;-80
2022/12/12 22:10:13;;;;;;;;;;;;;;;;;;6071097;23;20330;-81
2022/12/12 22:12:38;;;;;;;;;;;;;;;;;;6071267;23;19914;-82
2022/12/12 22:15:03;;;;;;;;;;;;;;;;;;6045420;23;19914;-81
2022/12/12 22:17:29;;;;;;;;;;;;;;;;;;6071184;23;20428;-79
2022/12/12 22:19:56;;;;;;;;;;;;;;;;;;6070964;23;20246;-79
2022/12/12 22:22:21;;;;;;;;;;;;;;;;;;6070921;23;19920;-79
2022/12/12 22:24:47;;;;;;;;;;;;;;;;;;6071016;23;19914;-79
2022/12/12 22:27:12;;;;;;;;;;;;;;;;;;6071019;23;19913;-79
2022/12/12 22:29:37;;;;;;;;;;;;;;;;;;6071123;23;19976;-79
2022/12/12 22:32:03;;;;;;;;;;;;;;;;;;6071344;23;19914;-79
2022/12/12 22:34:28;;;;;;;;;;;;;;;;;;6070986;23;19918;-80
2022/12/12 22:36:53;;;;;;;;;;;;;;;;;;6045503;23;19968;-80
2022/12/12 22:39:23;;;;;;;;;;;;;;;;;;6070802;23;20005;-79
2022/12/12 22:41:49;;;;;;;;;;;;;;;;;;6070851;23;19914;-79
2022/12/12 22:44:15;;;;;;;;;;;;;;;;;;6071098;23;19968;-81
2022/12/12 22:46:42;;;;;;;;;;;;;;;;;;6071115;23;19988;-79
2022/12/12 22:49:09;;;;;;;;;;;;;;;;;;6070894;23;19913;-79
2022/12/12 22:51:35;;;;;;;;;;;;;;;;;;6045148;23;19914;-79
2022/12/12 22:54:01;;;;;;;;;;;;;;;;;;6070794;23;20392;-81
2022/12/12 22:56:27;;;;;;;;;;;;;;;;;;6070708;23;20321;-80
2022/12/12 22:58:53;;;;;;;;;;;;;;;;;;6070866;23;19961;-81
2022/12/12 23:54:40;;;;;;;;;;;;;;;;;;6068483;23;19921;-88
2022/12/12 23:57:06;;;;;;;;;;;;;;;;;;6063661;23;20333;-83
2022/12/12 23:59:32;;;;;;;;;;;;;;;;;;6070216;23;19989;-84
